Time;durP1;ratioP1;P1;durP2;ratioP2;P2;SDS_P1;SDS_P2;PMS_P1;PMS_P2;Temp;Humidity;BMP_temperature;BMP_pressure;BME280_temperature;BME280_humidity;BME280_pressure;Samples;Min_cycle;Max_cycle;Signal;HPM_P1;HPM_P2
2023/08/28 00:00:49;;;;;;;4.30;2.90;;;15.50;99.90;;;;;;5095589;28;20295;-74
2023/08/28 00:03:15;;;;;;;3.37;2.47;;;15.40;99.90;;;;;;5095453;28;20627;-74
2023/08/28 00:05:40;;;;;;;4.07;2.97;;;15.40;99.90;;;;;;5095331;28;20183;-74
2023/08/28 00:08:07;;;;;;;3.47;2.60;;;15.30;99.90;;;;;;5094920;28;20173;-74
2023/08/28 00:10:32;;;;;;;2.87;2.60;;;15.30;99.90;;;;;;5095132;28;20225;-74
2023/08/28 00:12:58;;;;;;;2.70;2.50;;;15.40;99.90;;;;;;5095133;28;20176;-74
2023/08/28 00:15:24;;;;;;;3.13;2.30;;;15.30;99.90;;;;;;5095139;28;20187;-74
2023/08/28 00:17:49;;;;;;;2.73;2.10;;;15.30;99.90;;;;;;5094953;28;20259;-74
2023/08/28 00:20:16;;;;;;;6.07;2.40;;;15.30;99.90;;;;;;5095116;28;20172;-74
2023/08/28 00:22:42;;;;;;;4.87;2.60;;;15.20;99.90;;;;;;5094733;28;20179;-74
2023/08/28 00:25:08;;;;;;;3.73;2.40;;;15.20;99.90;;;;;;5094874;28;20172;-74
2023/08/28 00:27:34;;;;;;;2.70;2.50;;;15.20;99.90;;;;;;5094864;28;20263;-74
2023/08/28 00:30:00;;;;;;;2.23;2.13;;;15.20;99.90;;;;;;5094969;28;20203;-74
2023/08/28 00:32:26;;;;;;;2.70;2.50;;;15.20;99.90;;;;;;5094820;28;20211;-74
2023/08/28 00:34:53;;;;;;;3.17;2.63;;;15.20;99.90;;;;;;5094842;28;20541;-75
2023/08/28 00:37:18;;;;;;;5.23;2.70;;;15.20;99.90;;;;;;5094504;28;20174;-74
2023/08/28 00:39:44;;;;;;;4.83;2.50;;;15.20;99.90;;;;;;5094641;28;20164;-74
2023/08/28 00:42:10;;;;;;;5.77;2.50;;;15.10;99.90;;;;;;5094602;28;20203;-74
2023/08/28 00:44:35;;;;;;;3.33;2.60;;;15.10;99.90;;;;;;5094659;28;20176;-74
2023/08/28 00:47:02;;;;;;;8.83;2.80;;;15.10;99.90;;;;;;5094438;28;20615;-74
2023/08/28 00:49:29;;;;;;;5.73;2.70;;;15.10;99.90;;;;;;5094550;28;20179;-74
2023/08/28 00:51:56;;;;;;;2.60;2.40;;;15.10;99.90;;;;;;5094069;28;20211;-74
2023/08/28 00:54:21;;;;;;;3.57;2.37;;;15.10;99.90;;;;;;5094258;28;20183;-73
2023/08/28 00:56:48;;;;;;;4.67;2.50;;;15.20;99.90;;;;;;5094356;28;20181;-74
2023/08/28 00:59:15;;;;;;;3.93;2.60;;;15.20;99.90;;;;;;5094537;28;20225;-74
2023/08/28 01:01:41;;;;;;;3.07;2.70;;;15.10;99.90;;;;;;5092949;28;20183;-74
2023/08/28 01:04:07;;;;;;;3.27;2.43;;;15.20;99.90;;;;;;5094175;28;20172;-74
2023/08/28 01:06:42;;;;;;;5.27;2.70;;;15.20;99.90;;;;;;5093795;28;20543;-74
2023/08/28 01:09:33;;;;;;;9.00;3.10;;;15.10;99.90;;;;;;5093840;28;20171;-74
2023/08/28 01:12:21;;;;;;;4.83;2.63;;;15.10;99.90;;;;;;5094158;28;20215;-74
2023/08/28 01:15:01;;;;;;;3.67;2.40;;;15.00;99.90;;;;;;5092781;28;20168;-74
2023/08/28 01:17:30;;;;;;;3.23;2.70;;;15.10;99.90;;;;;;5093919;28;20175;-75
2023/08/28 01:19:57;;;;;;;4.20;2.87;;;15.10;99.90;;;;;;5093264;28;20232;-74
2023/08/28 01:22:32;;;;;;;6.73;3.10;;;15.00;99.90;;;;;;5094193;28;20623;-75
2023/08/28 01:25:09;;;;;;;3.80;3.00;;;15.00;99.90;;;;;;5093912;28;20559;-75
2023/08/28 01:27:37;;;;;;;3.23;2.90;;;14.90;99.90;;;;;;5093742;28;20512;-74
2023/08/28 01:30:13;;;;;;;3.93;2.83;;;14.90;99.90;;;;;;5094115;28;20188;-75
2023/08/28 01:32:40;;;;;;;4.40;3.03;;;14.80;99.90;;;;;;5093732;28;20203;-75
2023/08/28 01:35:12;;;;;;;3.20;2.90;;;14.70;99.90;;;;;;5092130;28;20523;-73
2023/08/28 01:37:57;;;;;;;3.17;2.97;;;14.70;99.90;;;;;;5093761;28;20175;-74
2023/08/28 01:40:28;;;;;;;3.27;2.97;;;14.70;99.90;;;;;;5093527;28;20542;-74
2023/08/28 01:42:55;;;;;;;3.60;3.30;;;14.60;99.90;;;;;;5092426;28;20168;-73
2023/08/28 01:45:21;;;;;;;3.73;3.37;;;14.70;99.90;;;;;;5093557;28;20164;-72
2023/08/28 01:47:47;;;;;;;3.97;3.37;;;14.60;99.90;;;;;;5093460;28;20225;-74
2023/08/28 01:50:12;;;;;;;3.73;3.43;;;14.60;99.90;;;;;;5093355;28;20176;-75
2023/08/28 01:52:38;;;;;;;5.63;3.37;;;14.60;99.90;;;;;;5093405;28;20204;-72
2023/08/28 01:55:04;;;;;;;5.20;3.70;;;14.60;99.90;;;;;;5093403;28;20629;-74
2023/08/28 01:57:30;;;;;;;6.13;3.77;;;14.50;99.90;;;;;;5092178;28;20183;-74
2023/08/28 01:59:55;;;;;;;4.33;3.93;;;14.50;99.90;;;;;;5093586;28;20172;-73
2023/08/28 02:02:21;;;;;;;5.03;4.00;;;14.50;99.90;;;;;;5093272;28;20692;-75
2023/08/28 02:04:47;;;;;;;4.47;3.87;;;14.40;99.90;;;;;;5093238;28;20271;-74
2023/08/28 02:07:12;;;;;;;4.60;4.20;;;14.40;99.90;;;;;;5093414;28;20237;-73
2023/08/28 02:09:38;;;;;;;4.53;4.13;;;14.50;99.90;;;;;;5092022;28;20176;-73
2023/08/28 02:12:05;;;;;;;4.47;4.07;;;14.50;99.90;;;;;;5093288;28;20210;-74
2023/08/28 02:14:31;;;;;;;5.00;4.00;;;14.50;99.90;;;;;;5093194;28;20167;-74
2023/08/28 02:16:57;;;;;;;5.37;3.93;;;14.50;99.90;;;;;;5093386;28;20176;-74
2023/08/28 02:19:22;;;;;;;4.70;4.17;;;14.50;99.90;;;;;;5093605;28;20713;-74
2023/08/28 02:21:48;;;;;;;5.97;4.00;;;14.50;99.90;;;;;;5097497;28;20255;-75
2023/08/28 02:24:13;;;;;;;5.20;4.40;;;14.50;99.90;;;;;;5097330;28;20168;-74
2023/08/28 02:26:39;;;;;;;7.53;4.03;;;14.50;99.90;;;;;;5097150;28;20581;-74
2023/08/28 02:29:05;;;;;;;4.37;4.03;;;14.40;99.90;;;;;;5097195;28;20630;-73
2023/08/28 02:31:30;;;;;;;6.80;4.77;;;14.40;99.90;;;;;;5097207;28;20548;-73
2023/08/28 02:33:56;;;;;;;4.77;4.10;;;14.40;99.90;;;;;;5096762;28;20214;-73
2023/08/28 02:36:21;;;;;;;4.80;4.50;;;14.50;99.90;;;;;;5097021;28;20176;-74
2023/08/28 02:38:48;;;;;;;7.73;4.20;;;14.50;99.90;;;;;;5096791;28;20164;-74
2023/08/28 02:41:13;;;;;;;6.57;4.30;;;14.40;99.90;;;;;;5096759;28;20706;-72
2023/08/28 02:43:39;;;;;;;8.67;4.47;;;14.50;99.90;;;;;;5096963;28;20172;-73
2023/08/28 02:46:04;;;;;;;4.80;4.23;;;14.50;99.90;;;;;;5096820;28;20172;-74
2023/08/28 02:48:30;;;;;;;7.67;4.93;;;14.40;99.90;;;;;;5096443;28;20203;-74
2023/08/28 02:50:56;;;;;;;4.97;4.30;;;14.30;99.90;;;;;;5096688;28;20239;-73
2023/08/28 02:53:21;;;;;;;5.70;4.50;;;14.30;99.90;;;;;;5096675;28;20164;-73
2023/08/28 02:56:23;;;;;;;5.47;4.60;;;14.30;99.90;;;;;;5096552;28;20644;-73
2023/08/28 02:58:50;;;;;;;5.27;4.60;;;14.30;99.90;;;;;;5096606;28;20164;-74
2023/08/28 03:01:17;;;;;;;5.93;4.57;;;14.30;99.90;;;;;;5095301;28;20174;-73
2023/08/28 03:03:43;;;;;;;4.47;4.00;;;14.30;99.90;;;;;;5096212;28;20174;-73
2023/08/28 03:06:08;;;;;;;5.33;4.67;;;14.30;99.90;;;;;;5096238;28;20245;-73
2023/08/28 03:08:34;;;;;;;5.63;4.33;;;14.30;99.90;;;;;;5096459;28;20203;-72
2023/08/28 03:11:00;;;;;;;7.27;4.40;;;14.20;99.90;;;;;;5096297;28;20313;-73
2023/08/28 03:13:25;;;;;;;4.83;4.33;;;14.20;99.90;;;;;;5096408;28;20600;-72
2023/08/28 03:15:51;;;;;;;6.13;4.70;;;14.20;99.90;;;;;;5095825;28;20172;-73
2023/08/28 03:18:17;;;;;;;5.57;4.80;;;14.20;99.90;;;;;;5095797;28;20617;-73
2023/08/28 03:20:43;;;;;;;6.60;4.73;;;14.20;99.90;;;;;;5095811;28;20688;-74
2023/08/28 03:23:09;;;;;;;6.27;5.10;;;14.10;99.90;;;;;;5095957;28;20176;-75
2023/08/28 03:25:36;;;;;;;5.53;5.00;;;14.10;99.90;;;;;;5095887;28;20211;-74
2023/08/28 03:28:02;;;;;;;6.63;5.10;;;14.10;99.90;;;;;;5095865;28;20176;-73
2023/08/28 03:30:28;;;;;;;6.20;5.27;;;14.10;99.90;;;;;;5095311;28;20672;-74
2023/08/28 03:32:53;;;;;;;6.03;4.87;;;14.10;99.90;;;;;;5095753;28;20226;-73
2023/08/28 03:35:19;;;;;;;7.43;5.60;;;14.10;99.90;;;;;;5095628;28;20164;-74
2023/08/28 03:37:45;;;;;;;7.20;5.00;;;14.20;99.90;;;;;;5094143;28;20246;-74
2023/08/28 03:40:11;;;;;;;5.70;5.13;;;14.20;99.90;;;;;;5095731;28;20172;-75
2023/08/28 03:42:36;;;;;;;8.07;5.43;;;14.30;99.90;;;;;;5095511;28;20643;-74
2023/08/28 03:45:02;;;;;;;7.50;5.30;;;14.20;99.90;;;;;;5095013;28;20221;-74
2023/08/28 03:47:28;;;;;;;9.07;5.93;;;14.30;99.90;;;;;;5095534;28;20255;-73
2023/08/28 03:49:53;;;;;;;6.77;5.70;;;14.30;99.90;;;;;;5095577;28;20168;-74
2023/08/28 03:52:19;;;;;;;6.47;5.87;;;14.30;99.90;;;;;;5093546;28;20203;-75
2023/08/28 03:54:45;;;;;;;8.77;6.30;;;14.40;99.90;;;;;;5095216;28;20581;-73
2023/08/28 03:57:10;;;;;;;6.10;5.47;;;14.40;99.90;;;;;;5095274;28;20263;-75
2023/08/28 03:59:36;;;;;;;8.87;5.43;;;14.40;99.90;;;;;;5094988;28;20191;-74
2023/08/28 04:02:03;;;;;;;7.47;6.03;;;14.40;99.90;;;;;;5095212;28;20211;-73
2023/08/28 04:04:28;;;;;;;6.70;6.00;;;14.50;99.90;;;;;;5095034;28;20164;-73
2023/08/28 04:06:57;;;;;;;7.27;6.00;;;14.50;99.90;;;;;;5095187;28;20263;-74
2023/08/28 04:09:23;;;;;;;7.07;6.00;;;14.50;99.90;;;;;;5094899;28;20168;-74
2023/08/28 04:11:48;;;;;;;7.33;6.37;;;14.50;99.90;;;;;;5093376;28;20540;-74
2023/08/28 04:14:14;;;;;;;6.50;5.67;;;14.50;99.90;;;;;;5094455;28;20258;-74
2023/08/28 04:16:40;;;;;;;9.17;5.53;;;14.50;99.90;;;;;;5094537;28;20684;-74
2023/08/28 04:19:05;;;;;;;6.87;5.87;;;14.50;99.90;;;;;;5094489;28;20224;-75
2023/08/28 04:21:31;;;;;;;10.27;6.03;;;14.50;99.90;;;;;;5093451;28;20183;-73
2023/08/28 04:23:57;;;;;;;7.97;6.03;;;14.50;99.90;;;;;;5094781;28;20655;-74
2023/08/28 04:26:22;;;;;;;7.57;5.80;;;14.60;99.90;;;;;;5094578;28;20172;-73
2023/08/28 04:28:48;;;;;;;7.33;5.93;;;14.60;99.90;;;;;;5094045;28;20629;-73
2023/08/28 04:31:13;;;;;;;6.90;6.10;;;14.60;99.90;;;;;;5093884;28;20192;-74
2023/08/28 04:33:39;;;;;;;8.07;5.60;;;14.60;99.90;;;;;;5094112;28;20288;-72
2023/08/28 04:36:05;;;;;;;7.07;6.10;;;14.70;99.90;;;;;;5094429;28;20171;-74
2023/08/28 04:38:30;;;;;;;9.33;6.17;;;14.80;99.90;;;;;;5094514;28;20186;-73
2023/08/28 04:40:56;;;;;;;9.73;5.87;;;15.00;99.90;;;;;;5092984;28;20195;-74
2023/08/28 04:43:22;;;;;;;9.63;5.63;;;15.00;99.90;;;;;;5093249;28;20681;-74
2023/08/28 04:45:50;;;;;;;6.67;6.03;;;15.10;99.90;;;;;;5092673;28;20263;-73
2023/08/28 04:48:18;;;;;;;6.07;5.47;;;15.00;99.90;;;;;;5093917;28;20171;-74
2023/08/28 04:50:43;;;;;;;7.70;6.40;;;15.00;99.90;;;;;;5093852;28;20208;-73
2023/08/28 04:53:09;;;;;;;7.53;5.80;;;15.10;99.90;;;;;;5092413;28;20764;-73
2023/08/28 04:55:37;;;;;;;7.97;5.70;;;15.00;99.90;;;;;;5093999;28;20210;-74
2023/08/28 04:58:03;;;;;;;8.93;5.90;;;15.10;99.90;;;;;;5093161;28;20199;-74
2023/08/28 05:00:29;;;;;;;7.87;5.87;;;15.10;99.90;;;;;;5093479;28;20195;-74
2023/08/28 05:02:54;;;;;;;9.10;5.90;;;15.10;99.90;;;;;;5093675;28;20179;-74
2023/08/28 05:05:20;;;;;;;6.50;5.90;;;15.00;99.90;;;;;;5093553;28;20229;-74
2023/08/28 05:07:45;;;;;;;7.53;6.43;;;15.00;99.90;;;;;;5093644;28;20172;-73
2023/08/28 05:10:11;;;;;;;6.57;5.97;;;14.90;99.90;;;;;;5093744;28;20543;-73
2023/08/28 05:12:37;;;;;;;9.13;6.53;;;14.90;99.90;;;;;;5093127;28;20212;-73
2023/08/28 05:15:02;;;;;;;8.53;6.37;;;14.90;99.90;;;;;;5093712;28;20608;-74
2023/08/28 05:17:28;;;;;;;10.87;7.07;;;14.90;99.90;;;;;;5093328;28;20175;-74
2023/08/28 05:19:54;;;;;;;8.80;6.73;;;14.90;99.90;;;;;;5093459;28;20223;-73
2023/08/28 05:22:19;;;;;;;7.00;6.30;;;15.10;99.90;;;;;;5093365;28;20620;-75
2023/08/28 05:24:45;;;;;;;9.90;6.90;;;15.20;99.90;;;;;;5093280;28;20259;-74
2023/08/28 05:27:11;;;;;;;11.47;7.13;;;15.20;99.90;;;;;;5092652;28;20209;-73
2023/08/28 05:29:36;;;;;;;8.83;6.77;;;15.30;99.90;;;;;;5092526;28;20231;-74
2023/08/28 05:32:02;;;;;;;9.30;6.53;;;15.60;99.90;;;;;;5092799;28;20243;-74
2023/08/28 05:34:28;;;;;;;7.73;6.87;;;15.60;99.90;;;;;;5093042;28;20179;-74
2023/08/28 05:36:53;;;;;;;8.90;7.20;;;15.70;99.90;;;;;;5092738;28;20669;-74
2023/08/28 05:39:19;;;;;;;9.00;6.70;;;15.70;99.90;;;;;;5093231;28;20188;-74
2023/08/28 05:41:44;;;;;;;8.40;6.57;;;15.70;99.90;;;;;;5091877;28;20192;-74
2023/08/28 05:44:10;;;;;;;7.10;6.37;;;15.90;99.90;;;;;;5091553;28;20175;-73
2023/08/28 05:46:35;;;;;;;9.60;6.77;;;15.80;99.90;;;;;;5091567;28;20275;-74
2023/08/28 05:49:02;;;;;;;8.43;6.77;;;15.80;99.90;;;;;;5092218;28;20252;-74
2023/08/28 05:51:27;;;;;;;10.47;7.00;;;15.80;99.90;;;;;;5090747;28;20220;-74
2023/08/28 05:53:53;;;;;;;9.67;6.93;;;15.80;99.90;;;;;;5091499;28;20526;-74
2023/08/28 05:56:18;;;;;;;9.07;6.80;;;15.90;99.90;;;;;;5091990;28;20184;-74
2023/08/28 05:58:44;;;;;;;9.00;6.50;;;16.00;99.90;;;;;;5091255;28;20164;-74
2023/08/28 06:01:10;;;;;;;8.00;7.17;;;16.20;99.90;;;;;;5092949;28;20543;-73
2023/08/28 06:03:35;;;;;;;7.63;6.53;;;16.40;99.90;;;;;;5092676;28;20232;-74
2023/08/28 06:06:01;;;;;;;9.33;6.70;;;16.60;99.90;;;;;;5092313;28;20179;-73
2023/08/28 06:08:26;;;;;;;13.17;6.53;;;16.80;99.90;;;;;;5091336;28;20180;-74
2023/08/28 06:10:52;;;;;;;8.60;5.70;;;16.90;99.90;;;;;;5091952;28;20701;-73
2023/08/28 06:13:18;;;;;;;8.82;6.30;;;17.20;99.90;;;;;;5092283;28;20194;-74
2023/08/28 06:15:43;;;;;;;7.70;5.93;;;17.20;99.90;;;;;;5092491;28;20172;-75
2023/08/28 06:18:09;;;;;;;6.55;5.95;;;17.20;99.90;;;;;;5091907;28;20656;-74
2023/08/28 06:20:35;;;;;;;10.93;5.97;;;17.30;99.90;;;;;;5092588;28;20190;-74
2023/08/28 06:23:01;;;;;;;8.13;5.72;;;17.60;99.90;;;;;;5092269;28;20171;-72
2023/08/28 06:25:27;;;;;;;9.68;5.40;;;18.10;99.90;;;;;;5091926;28;20171;-73
2023/08/28 06:27:53;;;;;;;10.10;6.15;;;18.50;99.90;;;;;;5092216;28;20262;-74
2023/08/28 06:30:19;;;;;;;6.28;5.65;;;18.50;99.90;;;;;;5091556;28;20243;-74
2023/08/28 06:32:45;;;;;;;9.48;5.57;;;18.50;99.90;;;;;;5092413;28;20211;-74
2023/08/28 06:35:11;;;;;;;9.88;5.75;;;18.20;99.90;;;;;;5092377;28;20267;-74
2023/08/28 06:37:36;;;;;;;10.02;5.78;;;17.90;99.90;;;;;;5091945;28;20616;-74
2023/08/28 06:40:03;;;;;;;6.30;5.70;;;17.90;99.90;;;;;;5092020;28;20273;-74
2023/08/28 06:42:29;;;;;;;7.93;6.10;;;17.70;99.90;;;;;;5091712;28;20176;-75
2023/08/28 06:44:55;;;;;;;10.77;6.97;;;17.50;99.90;;;;;;5091735;28;20255;-75
2023/08/28 06:47:21;;;;;;;9.85;5.93;;;17.50;99.90;;;;;;5092333;28;20667;-74
2023/08/28 06:49:46;;;;;;;9.88;7.07;;;17.50;99.90;;;;;;5091868;28;20164;-74
2023/08/28 06:52:12;;;;;;;7.32;6.22;;;17.60;99.90;;;;;;5091955;28;20203;-74
2023/08/28 06:54:38;;;;;;;8.23;6.50;;;17.80;99.90;;;;;;5092007;28;20172;-74
2023/08/28 06:57:03;;;;;;;13.63;6.65;;;18.00;99.90;;;;;;5091680;28;20168;-74
2023/08/28 06:59:29;;;;;;;8.80;6.38;;;18.10;99.90;;;;;;5091528;28;20172;-74
2023/08/28 07:01:55;;;;;;;10.02;5.88;;;18.20;99.90;;;;;;5092383;28;20607;-74
2023/08/28 07:04:20;;;;;;;11.30;6.75;;;18.30;99.90;;;;;;5091655;28;20160;-74
2023/08/28 07:06:46;;;;;;;9.73;6.80;;;18.10;99.90;;;;;;5094498;28;20172;-73
2023/08/28 07:09:12;;;;;;;14.35;7.28;;;18.10;99.90;;;;;;5095452;28;20225;-74
2023/08/28 07:11:37;;;;;;;6.80;6.13;;;18.20;99.90;;;;;;5095565;28;20299;-74
2023/08/28 07:14:05;;;;;;;9.63;6.18;;;18.90;99.90;;;;;;5095762;28;20218;-74
2023/08/28 07:16:31;;;;;;;7.40;5.40;;;20.00;99.90;;;;;;5095523;28;20179;-74
2023/08/28 07:18:56;;;;;;;5.40;4.88;;;21.90;99.90;;;;;;5095315;28;20294;-75
2023/08/28 07:21:22;;;;;;;8.35;5.25;;;24.00;99.90;;;;;;5095541;28;20217;-73
2023/08/28 07:23:51;;;;;;;7.95;5.28;;;25.80;99.50;;;;;;5094896;28;20228;-74
2023/08/28 07:26:17;;;;;;;9.77;5.03;;;27.60;94.80;;;;;;5095417;28;20182;-75
2023/08/28 07:28:43;;;;;;;5.25;4.25;;;29.00;89.20;;;;;;5095594;28;20160;-74
2023/08/28 07:31:10;;;;;;;4.85;4.40;;;30.00;80.90;;;;;;5094953;28;20202;-74
2023/08/28 07:33:36;;;;;;;8.60;4.07;;;30.40;73.10;;;;;;5095058;28;20260;-74
2023/08/28 07:36:01;;;;;;;5.95;3.83;;;31.30;71.00;;;;;;5095062;28;20546;-74
2023/08/28 07:38:27;;;;;;;4.78;4.00;;;31.70;64.40;;;;;;5095264;28;20262;-75
2023/08/28 07:40:52;;;;;;;6.40;3.90;;;32.90;58.40;;;;;;5094957;28;20194;-75
2023/08/28 07:43:18;;;;;;;4.75;3.63;;;32.70;56.40;;;;;;5094621;28;20233;-74
2023/08/28 07:45:44;;;;;;;4.18;3.80;;;33.30;54.40;;;;;;5095086;28;20211;-73
2023/08/28 07:48:09;;;;;;;4.50;3.85;;;33.60;53.00;;;;;;5095171;28;20179;-74
2023/08/28 07:50:35;;;;;;;4.20;3.83;;;34.60;50.20;;;;;;5094791;28;20179;-75
2023/08/28 07:53:00;;;;;;;3.65;3.30;;;34.80;48.80;;;;;;5094609;28;20210;-76
2023/08/28 07:55:26;;;;;;;3.92;3.55;;;34.40;47.40;;;;;;5094874;28;20729;-74
2023/08/28 07:57:53;;;;;;;4.25;3.30;;;34.70;46.80;;;;;;5094855;28;20187;-74
2023/08/28 08:00:21;;;;;;;8.70;3.15;;;33.40;47.50;;;;;;5094960;28;20168;-75
2023/08/28 08:02:49;;;;;;;2.85;2.60;;;33.00;49.80;;;;;;5094972;28;20195;-75
2023/08/28 08:05:15;;;;;;;4.95;2.90;;;33.70;48.10;;;;;;5093440;28;20171;-75
2023/08/28 08:07:40;;;;;;;4.93;3.10;;;34.20;47.20;;;;;;5094652;28;20178;-76
2023/08/28 08:10:11;;;;;;;8.50;4.40;;;35.20;44.90;;;;;;5093857;28;20167;-77
2023/08/28 08:12:38;;;;;;;7.15;3.72;;;35.10;43.90;;;;;;5077380;28;20230;-76
2023/08/28 08:15:04;;;;;;;5.75;2.25;;;35.50;43.30;;;;;;5082539;28;20342;-77
2023/08/28 08:17:30;;;;;;;2.20;2.00;;;34.50;42.90;;;;;;5081651;28;20186;-76
2023/08/28 08:19:56;;;;;;;7.22;3.05;;;34.40;43.10;;;;;;5087378;28;20630;-75
2023/08/28 08:22:21;;;;;;;3.50;1.98;;;34.00;44.20;;;;;;5079184;28;20184;-76
2023/08/28 08:24:47;;;;;;;3.25;1.83;;;34.30;43.40;;;;;;5071356;28;20200;-77
2023/08/28 08:27:12;;;;;;;4.30;2.30;;;34.40;43.50;;;;;;5086474;28;20187;-76
2023/08/28 08:29:38;;;;;;;2.50;2.05;;;34.70;42.60;;;;;;5077653;28;20180;-76
2023/08/28 08:32:04;;;;;;;2.13;1.88;;;34.30;42.50;;;;;;5073074;28;20725;-75
2023/08/28 08:34:32;;;;;;;2.92;2.00;;;34.30;42.90;;;;;;5092011;28;20662;-76
2023/08/28 08:36:58;;;;;;;4.03;2.10;;;34.20;42.70;;;;;;5093993;28;20184;-76
2023/08/28 08:39:24;;;;;;;3.95;2.50;;;34.80;42.00;;;;;;5092792;28;20176;-77
2023/08/28 08:41:49;;;;;;;2.10;1.90;;;34.50;42.00;;;;;;5092801;28;20215;-77
2023/08/28 08:44:15;;;;;;;1.70;1.60;;;34.90;41.20;;;;;;5076958;28;20172;-77
2023/08/28 08:46:44;;;;;;;3.78;2.03;;;35.10;40.70;;;;;;5071407;28;20333;-76
2023/08/28 08:49:13;;;;;;;2.55;1.52;;;35.40;40.20;;;;;;5073842;28;20206;-77
2023/08/28 08:51:42;;;;;;;4.97;2.63;;;34.90;39.30;;;;;;5073747;28;20300;-77
2023/08/28 08:54:31;;;;;;;2.17;1.30;;;34.90;39.20;;;;;;5092432;28;20250;-75
2023/08/28 08:57:00;;;;;;;2.10;1.30;;;34.70;38.30;;;;;;5076142;28;20225;-75
2023/08/28 08:59:26;;;;;;;4.20;2.35;;;34.20;39.70;;;;;;5086823;28;20180;-75
2023/08/28 09:01:53;;;;;;;3.80;2.15;;;34.40;39.70;;;;;;5088012;28;20186;-75
2023/08/28 09:04:19;;;;;;;2.75;1.60;;;35.30;39.70;;;;;;5092501;28;20167;-75
2023/08/28 09:06:48;;;;;;;1.80;1.70;;;35.40;38.30;;;;;;5093311;28;20263;-77
2023/08/28 09:09:15;;;;;;;4.30;1.83;;;35.30;38.80;;;;;;5087624;28;20170;-77
2023/08/28 09:11:45;;;;;;;2.33;2.20;;;35.80;37.00;;;;;;5082912;28;20611;-75
2023/08/28 09:14:11;;;;;;;2.28;1.90;;;35.70;36.10;;;;;;5070978;28;20286;-75
2023/08/28 09:16:36;;;;;;;1.50;1.25;;;36.20;34.60;;;;;;5071641;28;20670;-78
2023/08/28 09:19:02;;;;;;;1.55;1.40;;;36.30;34.00;;;;;;5083469;28;20216;-75
2023/08/28 09:21:34;;;;;;;1.50;1.40;;;36.20;33.20;;;;;;5071320;28;20183;-75
2023/08/28 09:23:59;;;;;;;3.03;1.30;;;35.00;34.50;;;;;;5072951;28;20218;-76
2023/08/28 09:26:26;;;;;;;1.30;1.20;;;34.50;35.60;;;;;;5072502;28;20172;-75
2023/08/28 09:28:59;;;;;;;2.67;0.90;;;34.40;34.60;;;;;;5073589;28;20241;-77
2023/08/28 09:31:42;;;;;;;3.88;1.77;;;34.40;34.70;;;;;;5079576;28;20292;-76
2023/08/28 09:34:08;;;;;;;1.83;1.58;;;34.40;34.60;;;;;;5081154;28;20210;-75
2023/08/28 09:36:35;;;;;;;2.58;1.70;;;34.00;34.30;;;;;;5077090;28;20172;-74
2023/08/28 09:39:03;;;;;;;2.78;1.42;;;33.30;35.10;;;;;;5092793;28;20179;-74
2023/08/28 09:41:55;;;;;;;2.47;1.42;;;32.70;36.70;;;;;;5093146;28;20196;-78
2023/08/28 09:44:24;;;;;;;1.10;1.10;;;32.90;36.30;;;;;;5073354;28;20188;-74
2023/08/28 09:46:50;;;;;;;2.85;1.77;;;33.10;36.20;;;;;;5072272;28;20177;-74
2023/08/28 09:49:16;;;;;;;2.30;1.58;;;32.50;36.10;;;;;;5072524;28;20218;-74
2023/08/28 09:51:42;;;;;;;3.42;3.00;;;32.00;37.50;;;;;;5073536;28;20227;-74
2023/08/28 09:54:10;;;;;;;1.40;1.30;;;31.30;37.40;;;;;;5071483;28;20179;-74
2023/08/28 09:56:37;;;;;;;2.72;1.85;;;29.90;40.30;;;;;;5078268;28;20240;-73
2023/08/28 09:59:03;;;;;;;2.03;1.55;;;28.60;43.90;;;;;;5074298;28;20172;-74
2023/08/28 10:01:34;;;;;;;4.20;2.40;;;27.90;47.70;;;;;;5069825;28;20184;-74
2023/08/28 10:04:03;;;;;;;3.85;2.28;;;27.60;50.40;;;;;;5076031;28;20176;-74
2023/08/28 10:06:31;;;;;;;1.38;1.30;;;27.30;52.00;;;;;;5084379;28;20236;-73
2023/08/28 10:08:59;;;;;;;4.40;1.42;;;27.10;53.60;;;;;;5085072;28;20181;-73
2023/08/28 10:11:35;;;;;;;1.52;1.10;;;26.80;54.90;;;;;;5071490;28;20226;-73
2023/08/28 10:14:04;;;;;;;5.38;1.17;;;26.30;54.70;;;;;;5071313;28;20259;-74
2023/08/28 10:16:33;;;;;;;3.22;1.15;;;26.00;53.60;;;;;;5071072;28;20180;-74
2023/08/28 10:19:36;;;;;;;2.88;1.45;;;25.90;52.60;;;;;;5072281;28;20216;-73
2023/08/28 10:22:06;;;;;;;2.75;1.80;;;25.60;55.30;;;;;;5048720;28;20241;-75
2023/08/28 10:24:34;;;;;;;2.63;1.70;;;25.80;55.90;;;;;;5092258;28;20266;-74
2023/08/28 10:27:00;;;;;;;2.50;1.30;;;26.10;54.80;;;;;;5091193;28;20174;-74
2023/08/28 10:29:26;;;;;;;1.85;1.35;;;26.00;55.20;;;;;;5092031;28;20168;-75
2023/08/28 10:31:54;;;;;;;3.55;1.10;;;26.00;56.00;;;;;;5091500;28;20686;-75
2023/08/28 10:34:20;;;;;;;1.30;1.20;;;25.80;58.30;;;;;;5092433;28;20176;-76
2023/08/28 10:36:47;;;;;;;2.40;1.20;;;26.50;55.70;;;;;;5092407;28;20180;-76
2023/08/28 10:39:13;;;;;;;1.02;1.00;;;26.70;56.00;;;;;;5092909;28;20251;-75
2023/08/28 10:41:39;;;;;;;2.72;1.30;;;26.80;53.20;;;;;;5094664;28;20681;-75
2023/08/28 10:44:06;;;;;;;2.45;1.55;;;26.80;54.50;;;;;;5096797;28;20172;-75
2023/08/28 10:46:32;;;;;;;1.92;1.38;;;26.80;54.10;;;;;;5095804;28;20175;-74
2023/08/28 10:49:04;;;;;;;2.55;1.80;;;26.60;54.50;;;;;;5096176;28;20164;-74
2023/08/28 10:51:32;;;;;;;1.95;1.38;;;26.10;55.90;;;;;;5095455;28;20204;-74
2023/08/28 10:54:07;;;;;;;3.85;1.88;;;25.90;56.10;;;;;;5095707;28;20160;-74
2023/08/28 10:56:35;;;;;;;3.58;1.27;;;25.60;55.20;;;;;;5096201;28;20177;-75
2023/08/28 10:59:21;;;;;;;1.83;1.73;;;25.50;58.20;;;;;;5096182;28;20541;-74
2023/08/28 11:02:02;;;;;;;3.22;2.88;;;25.70;56.00;;;;;;5092888;28;20168;-75
2023/08/28 11:04:37;;;;;;;3.50;1.10;;;25.80;55.70;;;;;;5075188;28;20188;-74
2023/08/28 11:07:04;;;;;;;1.42;1.02;;;25.40;56.40;;;;;;5074990;28;20306;-75
2023/08/28 11:09:30;;;;;;;1.23;1.13;;;25.40;57.30;;;;;;5074606;28;20180;-74
2023/08/28 11:11:58;;;;;;;4.35;1.70;;;25.90;55.70;;;;;;5075212;28;20300;-75
2023/08/28 11:14:41;;;;;;;2.15;1.40;;;25.90;55.90;;;;;;5074843;28;20173;-76
2023/08/28 11:17:18;;;;;;;2.00;1.80;;;25.80;55.90;;;;;;5075501;28;20223;-76
2023/08/28 11:22:38;;;;;;;3.85;1.83;;;25.70;1.00;;;;;;5075500;28;20259;-76
2023/08/28 11:25:09;;;;;;;3.22;1.45;;;25.70;1.00;;;;;;5075400;28;20164;-76
2023/08/28 11:27:54;;;;;;;2.22;1.58;;;26.70;99.90;;;;;;5075266;28;20229;-75
2023/08/28 11:30:21;;;;;;;1.30;1.20;;;27.50;1.00;;;;;;5091349;28;20180;-76
2023/08/28 11:32:55;;;;;;;2.40;1.52;;;28.60;33.60;;;;;;5094895;28;20675;-76
2023/08/28 11:35:22;;;;;;;3.25;1.38;;;28.40;49.30;;;;;;5094771;28;20221;-75
2023/08/28 11:37:51;;;;;;;2.30;1.92;;;29.00;48.40;;;;;;5094797;28;20229;-76
2023/08/28 11:40:18;;;;;;;1.85;1.40;;;29.40;47.50;;;;;;5094869;28;20187;-75
2023/08/28 11:42:49;;;;;;;2.63;1.40;;;30.10;47.60;;;;;;5094341;28;20176;-75
2023/08/28 11:45:22;;;;;;;2.25;1.20;;;29.00;46.40;;;;;;5094374;28;20178;-74
2023/08/28 11:47:48;;;;;;;1.05;1.05;;;28.30;46.20;;;;;;5094335;28;20168;-74
2023/08/28 11:50:13;;;;;;;1.50;1.25;;;29.00;47.70;;;;;;5094661;28;20198;-76
2023/08/28 11:52:39;;;;;;;1.10;1.10;;;30.00;45.20;;;;;;5094557;28;20315;-75
2023/08/28 11:55:06;;;;;;;1.42;1.33;;;30.50;43.90;;;;;;5094880;28;20168;-73
2023/08/28 11:57:33;;;;;;;2.15;1.55;;;29.60;43.10;;;;;;5093395;28;20205;-74
2023/08/28 12:00:00;;;;;;;2.10;1.90;;;29.50;45.60;;;;;;5094528;28;20192;-75
2023/08/28 12:02:29;;;;;;;1.73;1.40;;;29.50;46.60;;;;;;5092386;28;20532;-74
2023/08/28 12:04:54;;;;;;;4.65;1.50;;;29.60;46.90;;;;;;5073856;28;20177;-74
2023/08/28 12:07:22;;;;;;;3.78;1.52;;;29.50;48.00;;;;;;5074331;28;20179;-74
2023/08/28 12:09:49;;;;;;;2.40;1.40;;;29.10;47.50;;;;;;5074371;28;20195;-74
2023/08/28 12:12:16;;;;;;;1.77;1.60;;;28.50;48.50;;;;;;5074499;28;20266;-74
2023/08/28 12:14:43;;;;;;;2.97;2.45;;;28.40;49.20;;;;;;5088647;28;20841;-75
2023/08/28 12:17:21;;;;;;;5.18;2.40;;;28.20;50.10;;;;;;5077454;28;20183;-75
2023/08/28 12:19:50;;;;;;;2.17;1.50;;;27.90;50.10;;;;;;5075109;28;20220;-75
2023/08/28 12:22:16;;;;;;;2.08;1.40;;;27.60;49.90;;;;;;5073324;28;20172;-74
2023/08/28 12:24:43;;;;;;;1.38;1.30;;;27.50;50.30;;;;;;5074195;28;20231;-74
2023/08/28 12:27:13;;;;;;;3.45;1.38;;;27.10;51.30;;;;;;5073482;28;20172;-75
2023/08/28 12:29:42;;;;;;;2.70;1.33;;;26.80;51.70;;;;;;5073822;28;20176;-73
2023/08/28 12:32:14;;;;;;;2.55;1.30;;;26.30;52.80;;;;;;5075543;28;20212;-73
2023/08/28 12:34:40;;;;;;;2.67;1.40;;;26.10;54.60;;;;;;5076846;28;20165;-74
2023/08/28 12:37:07;;;;;;;3.67;1.40;;;26.10;56.30;;;;;;5077051;28;20263;-74
2023/08/28 12:39:34;;;;;;;4.07;2.15;;;25.80;61.60;;;;;;5072513;28;20192;-74
2023/08/28 12:42:00;;;;;;;3.33;2.45;;;25.90;65.00;;;;;;5082429;28;20721;-74
2023/08/28 12:44:27;;;;;;;3.13;2.75;;;25.70;68.50;;;;;;5079533;28;20183;-74
2023/08/28 12:46:53;;;;;;;5.30;2.58;;;25.70;71.80;;;;;;5092589;28;20168;-73
2023/08/28 12:49:22;;;;;;;3.28;2.20;;;25.70;73.20;;;;;;5093124;28;20160;-75